Time;durP1;ratioP1;P1;durP2;ratioP2;P2;SDS_P1;SDS_P2;PMS_P1;PMS_P2;Temp;Humidity;BMP_temperature;BMP_pressure;BME280_temperature;BME280_humidity;BME280_pressure;Samples;Min_cycle;Max_cycle;Signal;HPM_P1;HPM_P2
2022/02/22 00:01:22;;;;;;;8.43;3.40;;;3.90;99.90;;;;;;4191925;34;20268;-70
2022/02/22 00:04:09;;;;;;;10.73;4.00;;;3.90;99.90;;;;;;4164151;34;20184;-70
2022/02/22 00:06:54;;;;;;;10.27;3.73;;;3.90;99.90;;;;;;4152878;34;20178;-71
2022/02/22 00:09:59;;;;;;;11.57;3.70;;;3.90;99.90;;;;;;4163645;34;20247;-71
2022/02/22 00:13:34;;;;;;;10.67;3.77;;;3.90;99.90;;;;;;4175367;34;20189;-71
2022/02/22 00:16:19;;;;;;;11.33;3.57;;;3.90;99.90;;;;;;4175681;34;20204;-71
2022/02/22 00:20:12;;;;;;;;;;;;;;;;;;;;;
2022/02/22 00:23:14;;;;;;;9.63;3.50;;;3.90;99.90;;;;;;4218971;34;20168;-71
2022/02/22 00:25:43;;;;;;;7.20;3.50;;;3.80;99.90;;;;;;4207270;34;20228;-70
2022/02/22 00:28:20;;;;;;;10.23;3.50;;;3.90;99.90;;;;;;4218997;34;20175;-71
2022/02/22 00:31:39;;;;;;;10.67;3.57;;;3.90;99.90;;;;;;4230522;33;20270;-72
2022/02/22 00:34:07;;;;;;;9.57;3.10;;;3.90;99.90;;;;;;4260374;33;20179;-72
2022/02/22 00:36:34;;;;;;;7.63;3.37;;;3.90;99.90;;;;;;4290231;33;20200;-72
2022/02/22 00:39:15;;;;;;;8.53;3.60;;;3.90;99.90;;;;;;4287144;33;20177;-72
2022/02/22 00:41:48;;;;;;;9.13;3.30;;;3.90;99.90;;;;;;4319336;33;20185;-72
2022/02/22 00:44:23;;;;;;;10.70;3.67;;;3.90;99.90;;;;;;4318951;33;20162;-72
2022/02/22 00:47:10;;;;;;;8.83;3.90;;;3.90;99.90;;;;;;4318244;33;20180;-72
2022/02/22 00:50:18;;;;;;;9.43;3.20;;;4.00;99.90;;;;;;4319578;33;20202;-71
2022/02/22 00:52:50;;;;;;;11.07;3.33;;;4.00;99.90;;;;;;4279654;33;20182;-71
2022/02/22 00:55:32;;;;;;;7.07;3.07;;;4.10;99.90;;;;;;4291618;33;20189;-71
2022/02/22 00:58:16;;;;;;;8.17;2.90;;;4.30;99.90;;;;;;4289083;33;20217;-71
2022/02/22 01:01:17;;;;;;;9.27;2.87;;;4.40;99.90;;;;;;4289048;33;20185;-71
2022/02/22 01:03:58;;;;;;;9.73;3.20;;;4.50;99.90;;;;;;4289629;33;20173;-72
2022/02/22 01:07:18;;;;;;;7.53;2.90;;;4.50;99.90;;;;;;4303876;33;20154;-71
2022/02/22 01:09:48;;;;;;;6.30;3.20;;;4.50;99.90;;;;;;4279739;33;20226;-71
2022/02/22 01:12:16;;;;;;;8.47;2.80;;;4.60;99.90;;;;;;4332025;33;20180;-71
2022/02/22 01:14:44;;;;;;;7.53;3.07;;;4.60;99.90;;;;;;4332217;33;20173;-72
2022/02/22 01:17:32;;;;;;;6.37;3.00;;;4.60;99.90;;;;;;4331744;33;20231;-72
2022/02/22 01:20:05;;;;;;;9.07;3.10;;;4.60;99.90;;;;;;4320048;33;20261;-71
2022/02/22 01:22:33;;;;;;;7.40;2.80;;;4.60;99.90;;;;;;4321337;33;20222;-71
2022/02/22 01:25:01;;;;;;;9.50;3.10;;;4.50;99.90;;;;;;4333889;33;20169;-72
2022/02/22 01:27:28;;;;;;;6.93;3.00;;;4.50;99.90;;;;;;4320510;33;20198;-72
2022/02/22 01:29:56;;;;;;;7.07;2.80;;;4.50;99.90;;;;;;4381242;32;20152;-72
2022/02/22 01:32:23;;;;;;;8.13;3.03;;;4.50;99.90;;;;;;4381234;32;20204;-71
2022/02/22 01:34:51;;;;;;;9.43;2.93;;;4.50;99.90;;;;;;4393988;32;20179;-72
2022/02/22 01:37:19;;;;;;;5.07;2.70;;;4.50;99.90;;;;;;4394183;32;20183;-72
2022/02/22 01:39:46;;;;;;;8.07;2.87;;;4.50;99.90;;;;;;4394456;32;20202;-72
2022/02/22 01:42:14;;;;;;;7.07;2.90;;;4.50;99.90;;;;;;4394725;32;20218;-71
2022/02/22 01:44:42;;;;;;;8.40;3.30;;;4.50;99.90;;;;;;4393781;32;20195;-72
2022/02/22 01:47:11;;;;;;;6.90;3.03;;;4.50;99.90;;;;;;4394370;32;20183;-72
2022/02/22 01:49:39;;;;;;;8.47;3.23;;;4.50;99.90;;;;;;4407555;32;20332;-73
2022/02/22 01:52:09;;;;;;;10.17;3.30;;;4.50;99.90;;;;;;4393521;32;20177;-73
2022/02/22 01:54:37;;;;;;;6.53;3.10;;;4.50;99.90;;;;;;4393624;32;20179;-72
2022/02/22 01:57:05;;;;;;;7.87;3.00;;;4.50;99.90;;;;;;4393930;32;20243;-72
2022/02/22 01:59:33;;;;;;;10.30;3.30;;;4.40;99.90;;;;;;4393858;32;20235;-73
2022/02/22 02:02:00;;;;;;;8.80;3.47;;;4.40;99.90;;;;;;4394064;32;20247;-73
2022/02/22 02:04:31;;;;;;;9.13;3.10;;;4.40;99.90;;;;;;4393590;32;20227;-73
2022/02/22 02:07:06;;;;;;;7.33;2.90;;;4.40;99.90;;;;;;4394528;32;20251;-73
2022/02/22 02:09:34;;;;;;;5.77;2.97;;;4.40;99.90;;;;;;4393927;32;20190;-73
2022/02/22 02:12:09;;;;;;;7.33;2.90;;;4.40;99.90;;;;;;4393934;32;20192;-73
2022/02/22 02:14:39;;;;;;;8.53;3.07;;;4.40;99.90;;;;;;4394503;32;20212;-73
2022/02/22 02:17:07;;;;;;;7.57;3.30;;;4.40;99.90;;;;;;4394207;32;20212;-73
2022/02/22 02:19:41;;;;;;;7.40;2.80;;;4.40;99.90;;;;;;4393903;32;20252;-73
2022/02/22 02:22:09;;;;;;;6.63;2.87;;;4.30;99.90;;;;;;4394172;32;20252;-73
2022/02/22 02:24:39;;;;;;;8.10;3.00;;;4.30;99.90;;;;;;4393841;32;20183;-73
2022/02/22 02:27:07;;;;;;;6.13;2.93;;;4.20;99.90;;;;;;4394761;32;20188;-73
2022/02/22 02:29:34;;;;;;;5.67;2.80;;;4.30;99.90;;;;;;4397092;32;20201;-73
2022/02/22 02:32:01;;;;;;;4.57;2.70;;;4.30;99.90;;;;;;4396523;32;20241;-73
2022/02/22 02:34:29;;;;;;;4.70;2.63;;;4.30;99.90;;;;;;4396636;32;20221;-73
2022/02/22 02:36:57;;;;;;;5.30;2.70;;;4.30;99.90;;;;;;4396946;32;20190;-73
2022/02/22 02:39:24;;;;;;;6.07;2.63;;;4.30;99.90;;;;;;4396949;32;20242;-73
2022/02/22 02:41:53;;;;;;;6.60;3.07;;;4.30;99.90;;;;;;4396554;32;20230;-74
2022/02/22 02:44:25;;;;;;;5.90;2.90;;;4.30;99.90;;;;;;4396721;32;20176;-73
2022/02/22 02:46:52;;;;;;;4.30;2.53;;;4.30;99.90;;;;;;4396314;32;20198;-74
2022/02/22 02:49:20;;;;;;;6.03;2.50;;;4.30;99.90;;;;;;4396399;32;20183;-74
2022/02/22 02:51:50;;;;;;;6.00;2.80;;;4.20;99.90;;;;;;4396571;32;20174;-73
2022/02/22 02:54:18;;;;;;;6.77;2.50;;;4.20;99.90;;;;;;4409277;32;20221;-73
2022/02/22 02:56:48;;;;;;;3.97;2.57;;;4.20;99.90;;;;;;4396376;32;20231;-74
2022/02/22 02:59:16;;;;;;;5.47;2.50;;;4.20;99.90;;;;;;4409293;32;20171;-74
2022/02/22 03:01:43;;;;;;;4.93;2.73;;;4.20;99.90;;;;;;4396023;32;20171;-74
2022/02/22 03:04:12;;;;;;;3.93;2.60;;;4.20;99.90;;;;;;4396646;32;20202;-73
2022/02/22 03:06:43;;;;;;;5.33;2.67;;;4.20;99.90;;;;;;4396423;32;20270;-73
2022/02/22 03:09:10;;;;;;;4.97;2.70;;;4.20;99.90;;;;;;4396179;32;20197;-74
2022/02/22 03:11:40;;;;;;;5.40;2.40;;;4.30;99.90;;;;;;4396177;32;20194;-74
2022/02/22 03:14:10;;;;;;;4.43;2.60;;;4.20;99.90;;;;;;4396357;32;20185;-74
2022/02/22 03:16:39;;;;;;;4.50;2.70;;;4.20;99.90;;;;;;4396106;32;20168;-74
2022/02/22 03:19:08;;;;;;;4.40;2.37;;;4.30;99.90;;;;;;4396489;32;20184;-74
2022/02/22 03:21:40;;;;;;;4.07;2.80;;;4.20;99.90;;;;;;4396208;32;20183;-74
2022/02/22 03:24:09;;;;;;;4.13;2.30;;;4.20;99.90;;;;;;4396238;32;20206;-74
2022/02/22 03:26:37;;;;;;;5.53;2.30;;;4.20;99.90;;;;;;4396295;32;20231;-74
2022/02/22 03:29:04;;;;;;;5.53;2.80;;;4.20;99.90;;;;;;4396386;32;20232;-74
2022/02/22 03:31:35;;;;;;;4.63;2.47;;;4.20;99.90;;;;;;4396183;32;20226;-73
2022/02/22 03:34:02;;;;;;;4.57;2.70;;;4.10;99.90;;;;;;4395577;32;20201;-73
2022/02/22 03:36:33;;;;;;;5.23;2.90;;;4.20;99.90;;;;;;4396075;32;20190;-74
2022/02/22 03:39:00;;;;;;;4.47;2.70;;;4.10;99.90;;;;;;4408493;32;20201;-74
2022/02/22 03:41:28;;;;;;;5.37;2.70;;;4.00;99.90;;;;;;4395058;32;20215;-73
2022/02/22 03:43:55;;;;;;;3.47;2.30;;;4.00;99.90;;;;;;4393423;32;20227;-73
2022/02/22 03:46:28;;;;;;;4.33;2.60;;;3.90;99.90;;;;;;4380834;32;20233;-74
2022/02/22 03:48:58;;;;;;;5.47;2.50;;;3.80;99.90;;;;;;4393461;32;20161;-73
2022/02/22 03:51:27;;;;;;;4.77;2.40;;;3.80;99.90;;;;;;4380242;32;20230;-72
2022/02/22 03:53:57;;;;;;;2.93;2.30;;;3.80;99.90;;;;;;4380886;32;20284;-72
2022/02/22 03:56:24;;;;;;;4.53;2.70;;;3.70;99.90;;;;;;4380770;32;20175;-72
2022/02/22 03:58:52;;;;;;;3.80;2.43;;;3.70;99.90;;;;;;4380988;32;20187;-72
2022/02/22 04:01:20;;;;;;;3.60;2.67;;;3.60;99.90;;;;;;4380680;32;20202;-73
2022/02/22 04:03:50;;;;;;;5.10;2.30;;;3.60;99.90;;;;;;4380558;32;20169;-72
2022/02/22 04:06:17;;;;;;;8.53;2.77;;;3.60;99.90;;;;;;4380820;32;20230;-73
2022/02/22 04:08:47;;;;;;;3.97;2.40;;;3.50;99.90;;;;;;4393498;32;20160;-73
2022/02/22 04:11:16;;;;;;;3.50;2.13;;;3.50;99.90;;;;;;4380629;32;20191;-73
2022/02/22 04:13:46;;;;;;;7.80;2.20;;;3.60;99.90;;;;;;4379887;32;20230;-73
2022/02/22 04:16:13;;;;;;;4.37;2.10;;;3.60;99.90;;;;;;4380851;32;20239;-73
2022/02/22 04:18:41;;;;;;;5.47;2.10;;;3.60;99.90;;;;;;4380406;32;20303;-73
2022/02/22 04:21:08;;;;;;;3.73;1.90;;;3.60;99.90;;;;;;4380653;32;20233;-73
2022/02/22 04:23:35;;;;;;;4.50;1.90;;;3.80;99.90;;;;;;4393618;32;20132;-73
2022/02/22 04:26:02;;;;;;;4.37;1.97;;;3.70;99.90;;;;;;4380912;32;20325;-73
2022/02/22 04:28:29;;;;;;;4.70;2.00;;;3.80;99.90;;;;;;4380296;32;20537;-74
2022/02/22 04:30:57;;;;;;;3.87;2.03;;;3.80;99.90;;;;;;4380368;32;20502;-73
2022/02/22 04:33:24;;;;;;;3.97;1.70;;;3.80;99.90;;;;;;4379477;32;20175;-73
2022/02/22 04:35:54;;;;;;;4.17;1.70;;;3.90;99.90;;;;;;4380276;32;20267;-73
2022/02/22 04:38:22;;;;;;;3.20;1.60;;;3.90;99.90;;;;;;4379782;32;20172;-73
2022/02/22 04:40:52;;;;;;;4.13;2.00;;;3.90;99.90;;;;;;4380039;32;20194;-73
2022/02/22 04:43:20;;;;;;;6.93;2.00;;;3.90;99.90;;;;;;4391994;32;20347;-74
2022/02/22 04:45:47;;;;;;;3.63;1.73;;;4.00;99.90;;;;;;4379864;32;20195;-73
2022/02/22 04:48:15;;;;;;;5.03;2.00;;;4.00;99.90;;;;;;4379929;32;20226;-73
2022/02/22 04:50:42;;;;;;;3.17;1.70;;;4.00;99.90;;;;;;4379533;32;20242;-73
2022/02/22 04:53:19;;;;;;;3.57;1.70;;;3.90;99.90;;;;;;4379605;32;20191;-74
2022/02/22 04:55:46;;;;;;;4.03;1.83;;;4.00;99.90;;;;;;4392519;32;20174;-73
2022/02/22 04:58:14;;;;;;;4.20;1.80;;;4.00;99.90;;;;;;4379479;32;20183;-72
2022/02/22 05:00:41;;;;;;;7.40;1.93;;;4.00;99.90;;;;;;4379460;32;20176;-72
2022/02/22 05:03:09;;;;;;;3.80;1.90;;;4.00;99.90;;;;;;4379723;32;20183;-73
2022/02/22 05:05:37;;;;;;;4.17;1.90;;;4.10;99.90;;;;;;4379441;32;20184;-72
2022/02/22 05:08:05;;;;;;;4.87;2.00;;;4.10;99.90;;;;;;4385398;32;20241;-72
2022/02/22 05:10:32;;;;;;;5.00;2.13;;;4.10;99.90;;;;;;4424239;32;20204;-73
2022/02/22 05:13:01;;;;;;;3.67;1.90;;;4.00;99.90;;;;;;4426048;32;20202;-72
2022/02/22 05:15:33;;;;;;;3.63;1.80;;;4.10;99.90;;;;;;4426332;32;20194;-72
2022/02/22 05:18:04;;;;;;;3.23;2.13;;;4.10;99.90;;;;;;4425856;32;20174;-72
2022/02/22 05:20:32;;;;;;;5.30;2.10;;;4.10;99.90;;;;;;4426019;32;20174;-72
2022/02/22 05:22:59;;;;;;;2.87;1.73;;;4.10;99.90;;;;;;4426504;32;20501;-72
2022/02/22 05:25:27;;;;;;;5.07;2.07;;;4.10;99.90;;;;;;4425642;32;20242;-72
2022/02/22 05:27:55;;;;;;;4.17;2.07;;;4.10;99.90;;;;;;4426538;32;20194;-73
2022/02/22 05:30:22;;;;;;;5.43;1.97;;;4.10;99.90;;;;;;4439587;32;20193;-73
2022/02/22 05:32:50;;;;;;;7.07;2.80;;;4.10;99.90;;;;;;4425408;32;20175;-73
2022/02/22 05:35:17;;;;;;;5.53;1.83;;;4.10;99.90;;;;;;4426086;32;20171;-73
2022/02/22 05:37:44;;;;;;;5.57;2.10;;;4.10;99.90;;;;;;4425833;32;20223;-72
2022/02/22 05:40:12;;;;;;;4.43;1.90;;;4.10;99.90;;;;;;4425486;32;20212;-73
2022/02/22 05:42:40;;;;;;;4.97;2.10;;;4.10;99.90;;;;;;4425515;32;20205;-72
2022/02/22 05:45:10;;;;;;;3.90;1.87;;;4.10;99.90;;;;;;4426097;32;20186;-72
2022/02/22 05:47:37;;;;;;;4.67;2.00;;;4.10;99.90;;;;;;4425745;32;20180;-73
2022/02/22 05:50:05;;;;;;;7.90;2.03;;;4.10;99.90;;;;;;4425310;32;20183;-72
2022/02/22 05:52:33;;;;;;;6.37;2.30;;;4.10;99.90;;;;;;4425275;32;20186;-73
2022/02/22 05:55:00;;;;;;;5.17;1.77;;;4.10;99.90;;;;;;4425378;32;20239;-73
2022/02/22 05:57:27;;;;;;;7.00;2.10;;;4.10;99.90;;;;;;4425785;32;20171;-72
2022/02/22 05:59:55;;;;;;;5.30;2.10;;;4.10;99.90;;;;;;4425211;32;20209;-72
2022/02/22 06:02:22;;;;;;;5.50;2.10;;;4.10;99.90;;;;;;4425361;32;20175;-72
2022/02/22 06:04:50;;;;;;;7.40;2.00;;;4.10;99.90;;;;;;4424863;32;20254;-72
2022/02/22 06:07:24;;;;;;;5.50;2.93;;;4.10;99.90;;;;;;4425493;32;20189;-72
2022/02/22 06:09:54;;;;;;;5.20;2.00;;;4.10;99.90;;;;;;4419127;32;20218;-72
2022/02/22 06:12:22;;;;;;;5.37;2.10;;;4.10;99.90;;;;;;4424915;32;20253;-72
2022/02/22 06:14:49;;;;;;;6.27;2.23;;;4.10;99.90;;;;;;4425324;32;20192;-72
2022/02/22 06:17:20;;;;;;;4.37;2.10;;;4.10;99.90;;;;;;4440939;32;20197;-72
2022/02/22 06:19:50;;;;;;;8.70;2.60;;;4.10;99.90;;;;;;4425021;32;20174;-72
2022/02/22 06:22:20;;;;;;;5.00;2.10;;;4.10;99.90;;;;;;4425418;32;20175;-72
2022/02/22 06:24:51;;;;;;;4.63;2.80;;;4.10;99.90;;;;;;4425115;32;20216;-72
2022/02/22 06:27:18;;;;;;;5.77;2.67;;;4.10;99.90;;;;;;4424973;32;20262;-72
2022/02/22 06:29:46;;;;;;;5.73;2.20;;;4.10;99.90;;;;;;4439616;32;20170;-73
2022/02/22 06:32:13;;;;;;;9.00;2.50;;;4.10;99.90;;;;;;4438508;32;20158;-72
2022/02/22 06:34:42;;;;;;;6.10;2.33;;;4.10;99.90;;;;;;4424411;32;20253;-72
2022/02/22 06:37:09;;;;;;;6.23;2.93;;;4.10;99.90;;;;;;4439424;32;20203;-72
2022/02/22 06:39:39;;;;;;;5.57;2.27;;;4.00;99.90;;;;;;4439054;32;20477;-72
2022/02/22 06:42:06;;;;;;;5.70;2.60;;;4.10;99.90;;;;;;4425410;32;20209;-72
2022/02/22 06:44:36;;;;;;;8.53;2.63;;;4.10;99.90;;;;;;4425728;32;20178;-72
2022/02/22 06:47:04;;;;;;;8.00;2.37;;;4.10;99.90;;;;;;4424521;32;20181;-72
2022/02/22 06:49:31;;;;;;;6.50;2.30;;;4.10;99.90;;;;;;4439667;32;20134;-73
2022/02/22 06:51:58;;;;;;;8.80;2.50;;;4.10;99.90;;;;;;4425329;32;20175;-73
2022/02/22 06:54:25;;;;;;;4.43;2.20;;;4.10;99.90;;;;;;4424297;32;20191;-73
2022/02/22 06:56:51;;;;;;;4.70;2.20;;;4.20;99.90;;;;;;4424624;32;20197;-72
2022/02/22 06:59:19;;;;;;;5.27;2.10;;;4.10;99.90;;;;;;4439115;32;20182;-74
2022/02/22 07:01:46;;;;;;;5.87;3.07;;;4.20;99.90;;;;;;4438527;32;20200;-74
2022/02/22 07:04:13;;;;;;;4.90;2.10;;;4.20;99.90;;;;;;4411348;32;20179;-74
2022/02/22 07:06:40;;;;;;;5.13;2.30;;;4.20;99.90;;;;;;4425243;32;20175;-74
2022/02/22 07:09:07;;;;;;;5.73;2.13;;;4.20;99.90;;;;;;4425697;32;20187;-74
2022/02/22 07:11:34;;;;;;;5.93;2.20;;;4.20;99.90;;;;;;4438762;32;20174;-74
2022/02/22 07:14:01;;;;;;;5.63;2.40;;;4.30;99.90;;;;;;4426462;32;20512;-74
2022/02/22 07:16:28;;;;;;;4.00;2.17;;;4.30;99.90;;;;;;4427851;32;20256;-74
2022/02/22 07:18:55;;;;;;;5.90;2.33;;;4.30;99.90;;;;;;4427869;32;20198;-73
2022/02/22 07:21:23;;;;;;;8.57;2.60;;;4.30;99.90;;;;;;4429437;32;20178;-74
2022/02/22 07:23:51;;;;;;;11.00;2.80;;;4.30;99.90;;;;;;4428700;32;20186;-73
2022/02/22 07:26:18;;;;;;;8.00;2.70;;;4.40;99.90;;;;;;4442611;32;20150;-73
2022/02/22 07:28:45;;;;;;;5.07;2.50;;;4.40;99.90;;;;;;4429675;32;20183;-73
2022/02/22 07:31:12;;;;;;;6.23;2.60;;;4.40;99.90;;;;;;4427461;32;20205;-73
2022/02/22 07:33:39;;;;;;;6.10;2.60;;;4.40;99.90;;;;;;4441081;32;20182;-73
2022/02/22 07:36:07;;;;;;;6.20;2.37;;;4.50;99.90;;;;;;4427375;32;20217;-73
2022/02/22 07:38:34;;;;;;;5.17;2.40;;;4.50;99.90;;;;;;4428618;32;20171;-73
2022/02/22 07:41:01;;;;;;;5.70;2.50;;;4.50;99.90;;;;;;4427487;32;20264;-73
2022/02/22 07:43:29;;;;;;;5.87;2.50;;;4.50;99.90;;;;;;4426889;32;20247;-73
2022/02/22 07:45:56;;;;;;;8.30;2.97;;;4.50;99.90;;;;;;4441178;32;20209;-73
2022/02/22 07:48:23;;;;;;;6.83;2.60;;;4.50;99.90;;;;;;4427340;32;20216;-73
2022/02/22 07:50:50;;;;;;;7.00;2.70;;;4.50;99.90;;;;;;4421942;32;20240;-73
2022/02/22 07:53:17;;;;;;;6.63;2.90;;;4.50;99.90;;;;;;4447696;32;20186;-73
2022/02/22 07:55:45;;;;;;;9.90;3.53;;;4.40;99.90;;;;;;4440138;32;20174;-73
2022/02/22 07:58:12;;;;;;;5.10;2.70;;;4.40;99.90;;;;;;4439937;32;20180;-73
2022/02/22 08:00:40;;;;;;;5.53;2.73;;;4.40;99.90;;;;;;4439833;32;20238;-73
2022/02/22 08:03:07;;;;;;;5.20;2.70;;;4.40;99.90;;;;;;4441311;32;20446;-74
2022/02/22 08:05:34;;;;;;;5.60;2.80;;;4.40;99.90;;;;;;4447351;32;20847;-74
2022/02/22 08:08:02;;;;;;;8.33;2.90;;;4.30;99.90;;;;;;4441261;32;20546;-74
2022/02/22 08:10:29;;;;;;;5.93;2.80;;;4.30;99.90;;;;;;4440371;32;20583;-74
2022/02/22 08:12:56;;;;;;;5.07;2.77;;;4.20;99.90;;;;;;4438810;32;20581;-73
2022/02/22 08:15:23;;;;;;;5.97;2.90;;;4.20;99.90;;;;;;4439640;32;20174;-73
2022/02/22 08:17:51;;;;;;;8.00;2.80;;;4.30;99.90;;;;;;4439770;32;20170;-73
2022/02/22 08:20:18;;;;;;;5.87;2.60;;;4.30;99.90;;;;;;4440084;32;20179;-73
2022/02/22 08:22:45;;;;;;;7.97;2.63;;;4.40;99.90;;;;;;4440216;32;20159;-73
2022/02/22 08:25:12;;;;;;;8.23;2.60;;;4.40;99.90;;;;;;4439868;32;20162;-74
2022/02/22 08:27:39;;;;;;;7.80;3.47;;;4.40;99.90;;;;;;4441095;32;20202;-74
2022/02/22 08:30:07;;;;;;;7.63;2.87;;;4.40;99.90;;;;;;4439460;32;20443;-74
2022/02/22 08:32:34;;;;;;;5.93;2.80;;;4.50;99.90;;;;;;4440151;32;20187;-75
2022/02/22 08:35:01;;;;;;;7.60;2.70;;;4.50;99.90;;;;;;4441456;32;20548;-74
2022/02/22 08:37:28;;;;;;;6.30;2.70;;;4.50;99.90;;;;;;4445305;32;20563;-74
2022/02/22 08:39:56;;;;;;;6.57;3.00;;;4.60;99.90;;;;;;4439301;32;20175;-74
2022/02/22 08:42:24;;;;;;;4.93;2.70;;;4.50;99.90;;;;;;4438393;32;20214;-74
2022/02/22 08:45:10;;;;;;;5.87;2.60;;;4.50;99.90;;;;;;4440070;32;20148;-73
2022/02/22 08:47:37;;;;;;;6.37;2.57;;;4.60;99.90;;;;;;4440183;32;20201;-73
2022/02/22 08:50:05;;;;;;;7.97;2.57;;;4.60;99.90;;;;;;4440378;32;20203;-75
2022/02/22 08:52:32;;;;;;;6.20;2.67;;;4.50;99.90;;;;;;4440240;32;20505;-74
2022/02/22 08:55:00;;;;;;;6.67;2.90;;;4.60;99.90;;;;;;4438694;32;20259;-74
2022/02/22 08:57:27;;;;;;;6.10;2.50;;;4.60;99.90;;;;;;4440412;32;20204;-73
2022/02/22 08:59:54;;;;;;;7.27;2.93;;;4.60;99.90;;;;;;4441007;32;20147;-73
2022/02/22 09:02:26;;;;;;;5.63;3.10;;;4.60;99.90;;;;;;4441323;32;20377;-74
2022/02/22 09:04:52;;;;;;;5.93;2.77;;;4.70;99.90;;;;;;4439038;32;20169;-76
2022/02/22 09:07:19;;;;;;;8.07;2.80;;;4.70;99.90;;;;;;4440793;32;20230;-73
2022/02/22 09:09:46;;;;;;;8.17;2.77;;;4.70;99.90;;;;;;4439425;32;20242;-74
2022/02/22 09:12:13;;;;;;;7.93;2.80;;;4.70;99.90;;;;;;4439852;32;20600;-73
2022/02/22 09:14:40;;;;;;;6.33;2.83;;;4.80;99.90;;;;;;4439548;32;20439;-73
2022/02/22 09:17:07;;;;;;;6.73;2.73;;;4.80;99.90;;;;;;4438768;32;20206;-73
2022/02/22 09:19:34;;;;;;;4.63;2.50;;;4.80;99.90;;;;;;4440463;32;20457;-73
2022/02/22 09:22:01;;;;;;;6.97;2.70;;;4.90;99.90;;;;;;4438800;32;20201;-73
2022/02/22 09:24:28;;;;;;;6.50;2.63;;;4.80;99.90;;;;;;4439385;32;20208;-73
2022/02/22 09:26:55;;;;;;;5.97;2.40;;;4.90;99.90;;;;;;4440271;32;20211;-74
2022/02/22 09:29:22;;;;;;;4.73;2.53;;;5.00;99.90;;;;;;4439108;32;20190;-74
2022/02/22 09:31:49;;;;;;;6.60;3.30;;;5.10;99.90;;;;;;4438427;32;20514;-73
2022/02/22 09:34:17;;;;;;;8.13;2.77;;;5.20;99.90;;;;;;4439757;32;20195;-73
2022/02/22 09:36:44;;;;;;;6.67;2.80;;;5.30;99.90;;;;;;4437903;32;20179;-73
2022/02/22 09:39:11;;;;;;;8.87;2.80;;;5.30;99.90;;;;;;4439032;32;20196;-73
2022/02/22 09:41:38;;;;;;;7.27;2.83;;;5.30;99.90;;;;;;4440520;32;20148;-73
2022/02/22 09:44:05;;;;;;;6.63;2.60;;;5.40;99.90;;;;;;4440335;32;20160;-73
2022/02/22 09:46:33;;;;;;;7.77;2.80;;;5.40;99.90;;;;;;4437987;32;20263;-73
2022/02/22 09:49:00;;;;;;;8.63;2.93;;;5.30;99.90;;;;;;4440502;32;20214;-74
2022/02/22 09:51:27;;;;;;;8.23;2.50;;;5.50;99.90;;;;;;4446635;32;20203;-75
2022/02/22 09:53:54;;;;;;;6.93;2.27;;;6.00;99.90;;;;;;4439925;32;20184;-74
2022/02/22 09:56:24;;;;;;;7.50;2.10;;;6.00;99.90;;;;;;4438276;32;20171;-75
2022/02/22 09:58:51;;;;;;;4.53;2.07;;;6.00;99.90;;;;;;4437714;32;20204;-74
2022/02/22 10:01:18;;;;;;;6.73;2.60;;;6.10;99.90;;;;;;4438980;32;20188;-75
2022/02/22 10:03:56;;;;;;;9.07;2.43;;;6.30;99.90;;;;;;4438185;32;20201;-74
2022/02/22 10:06:25;;;;;;;6.17;2.60;;;6.30;99.90;;;;;;4441146;32;20174;-72
2022/02/22 10:08:54;;;;;;;7.50;2.73;;;6.30;99.90;;;;;;4438578;32;20239;-74
2022/02/22 10:11:22;;;;;;;5.13;2.33;;;6.40;99.90;;;;;;4438303;32;20174;-74
2022/02/22 10:13:49;;;;;;;6.83;2.70;;;6.60;99.90;;;;;;4437811;32;20193;-74
2022/02/22 10:16:18;;;;;;;7.37;2.17;;;6.40;99.90;;;;;;4437280;32;20234;-74
2022/02/22 10:19:03;;;;;;;5.53;2.70;;;6.40;99.90;;;;;;4438876;32;20182;-74
2022/02/22 10:21:41;;;;;;;8.03;2.30;;;6.60;99.90;;;;;;4438050;32;20254;-74
2022/02/22 10:24:17;;;;;;;4.60;2.30;;;7.40;99.90;;;;;;4438823;32;20227;-74
2022/02/22 10:26:45;;;;;;;6.07;2.30;;;7.60;99.90;;;;;;4439997;32;20209;-73
2022/02/22 10:29:16;;;;;;;6.77;2.30;;;7.80;99.90;;;;;;4437310;32;20600;-74
2022/02/22 10:31:46;;;;;;;7.00;2.30;;;7.80;99.90;;;;;;4437990;32;20169;-74
2022/02/22 10:34:13;;;;;;;4.67;2.20;;;7.50;99.90;;;;;;4437411;32;20177;-74
2022/02/22 10:36:50;;;;;;;6.77;2.50;;;7.10;99.90;;;;;;4437397;32;20239;-74
2022/02/22 10:39:20;;;;;;;4.87;2.60;;;6.90;99.90;;;;;;4438470;32;20203;-73
2022/02/22 10:41:52;;;;;;;5.77;2.30;;;6.80;99.90;;;;;;4440090;32;20204;-74
2022/02/22 10:44:35;;;;;;;6.63;2.60;;;6.80;99.90;;;;;;4437892;32;20212;-74
2022/02/22 10:47:15;;;;;;;8.37;2.70;;;6.70;99.90;;;;;;4425794;32;20172;-72
2022/02/22 10:49:43;;;;;;;6.37;2.30;;;6.30;99.90;;;;;;4440894;32;20279;-73
2022/02/22 10:52:11;;;;;;;6.70;2.60;;;6.20;99.90;;;;;;4440718;32;20247;-73
2022/02/22 10:54:41;;;;;;;4.90;2.30;;;6.10;99.90;;;;;;4441344;32;20510;-75
2022/02/22 10:57:09;;;;;;;6.90;2.40;;;6.20;99.90;;;;;;4441346;32;20202;-74
2022/02/22 10:59:36;;;;;;;6.70;2.30;;;6.20;99.90;;;;;;4441911;32;20230;-75
2022/02/22 11:02:04;;;;;;;5.60;2.40;;;6.40;99.90;;;;;;4440182;32;20188;-70
2022/02/22 11:04:35;;;;;;;8.93;2.77;;;6.70;99.90;;;;;;4441458;32;20188;-71
2022/02/22 11:07:04;;;;;;;5.53;2.50;;;7.20;99.90;;;;;;4428859;32;20172;-70
2022/02/22 11:09:35;;;;;;;7.80;2.47;;;7.80;99.90;;;;;;4441679;32;20406;-70
2022/02/22 11:12:15;;;;;;;5.30;2.30;;;8.30;99.90;;;;;;4440053;32;20198;-70
2022/02/22 11:14:42;;;;;;;6.93;2.43;;;8.30;99.90;;;;;;4440532;32;20201;-70
2022/02/22 11:17:22;;;;;;;7.53;2.63;;;8.30;99.90;;;;;;4440962;32;20551;-70
2022/02/22 11:19:54;;;;;;;4.90;1.80;;;8.30;99.90;;;;;;4440283;32;20236;-70
2022/02/22 11:22:25;;;;;;;4.50;1.73;;;8.30;99.90;;;;;;4441382;32;20237;-70
2022/02/22 11:24:58;;;;;;;4.30;1.97;;;8.10;99.90;;;;;;4440514;32;20193;-69
2022/02/22 11:27:25;;;;;;;4.83;2.00;;;7.60;99.90;;;;;;4439838;32;20200;-69
2022/02/22 11:29:56;;;;;;;6.43;2.00;;;7.70;99.90;;;;;;4439876;32;20178;-70
2022/02/22 11:32:40;;;;;;;4.30;1.90;;;7.90;99.90;;;;;;4440823;32;20453;-69
2022/02/22 11:35:15;;;;;;;3.27;1.30;;;8.00;99.90;;;;;;4440811;32;20205;-71
2022/02/22 11:37:46;;;;;;;6.03;1.70;;;8.10;99.90;;;;;;4440165;32;20185;-70
2022/02/22 11:40:27;;;;;;;2.90;1.50;;;8.90;99.90;;;;;;4430660;32;20174;-70
2022/02/22 11:43:22;;;;;;;4.30;1.70;;;9.90;99.90;;;;;;4444084;32;20217;-70
2022/02/22 11:45:50;;;;;;;6.20;1.60;;;11.10;99.90;;;;;;4437873;32;20182;-72
2022/02/22 11:48:21;;;;;;;4.37;1.47;;;11.70;99.90;;;;;;4440192;32;20166;-71
2022/02/22 11:50:59;;;;;;;4.80;1.70;;;11.40;95.00;;;;;;4440159;32;20179;-70
2022/02/22 11:53:29;;;;;;;4.13;1.20;;;10.40;96.30;;;;;;4442177;32;20139;-71
2022/02/22 11:55:57;;;;;;;4.57;1.33;;;10.10;98.50;;;;;;4442700;32;20185;-71
2022/02/22 11:58:27;;;;;;;2.30;1.00;;;10.00;97.60;;;;;;4439654;32;20188;-70
2022/02/22 12:01:04;;;;;;;2.87;1.30;;;9.70;98.60;;;;;;4441166;32;20418;-71
2022/02/22 12:03:49;;;;;;;3.20;1.20;;;9.60;99.90;;;;;;4441034;32;20182;-70
2022/02/22 12:06:20;;;;;;;4.70;1.40;;;9.40;99.90;;;;;;4440442;32;20215;-71
2022/02/22 12:08:51;;;;;;;3.70;1.30;;;9.40;99.90;;;;;;4440515;32;20204;-71
2022/02/22 12:11:23;;;;;;;5.20;1.23;;;9.30;99.90;;;;;;4439367;32;20192;-71
2022/02/22 12:13:57;;;;;;;4.80;1.50;;;8.80;99.90;;;;;;4450087;32;20204;-70
2022/02/22 12:16:30;;;;;;;5.50;1.20;;;8.40;99.90;;;;;;4440945;32;20178;-72
2022/02/22 12:19:04;;;;;;;3.13;1.20;;;7.90;99.90;;;;;;4439218;32;20253;-70
2022/02/22 12:21:31;;;;;;;3.53;1.30;;;7.90;99.90;;;;;;4439573;32;20209;-71
2022/02/22 12:24:00;;;;;;;2.73;1.57;;;7.90;99.90;;;;;;4439681;32;20239;-70
2022/02/22 12:26:27;;;;;;;5.97;1.50;;;7.60;99.90;;;;;;4440169;32;20201;-70
2022/02/22 12:29:03;;;;;;;4.90;1.47;;;7.60;99.90;;;;;;4439563;32;20171;-70
2022/02/22 12:31:34;;;;;;;4.93;1.77;;;7.50;99.90;;;;;;4441048;32;20155;-70
2022/02/22 12:34:14;;;;;;;5.43;1.63;;;7.60;99.90;;;;;;4439655;32;20214;-69
2022/02/22 12:36:43;;;;;;;5.50;1.67;;;7.70;99.90;;;;;;4441070;32;20168;-70
2022/02/22 12:39:13;;;;;;;5.13;1.47;;;7.40;99.90;;;;;;4439313;32;20182;-71
2022/02/22 12:41:42;;;;;;;3.63;1.47;;;7.30;99.90;;;;;;4439123;32;20179;-71
2022/02/22 12:44:17;;;;;;;2.90;1.53;;;7.30;99.90;;;;;;4439344;32;20222;-71
2022/02/22 12:46:47;;;;;;;4.60;1.77;;;7.10;99.90;;;;;;4438569;32;20250;-70
2022/02/22 12:49:17;;;;;;;5.67;1.77;;;6.90;99.90;;;;;;4438986;32;20268;-69
2022/02/22 12:51:46;;;;;;;4.87;1.50;;;6.80;99.90;;;;;;4438862;32;20241;-70
2022/02/22 12:54:15;;;;;;;8.13;2.30;;;6.70;99.90;;;;;;4426864;32;20169;-70
2022/02/22 12:56:50;;;;;;;4.70;1.57;;;6.80;99.90;;;;;;4438706;32;20174;-70
2022/02/22 12:59:24;;;;;;;5.27;2.10;;;6.70;99.90;;;;;;4438764;32;20195;-70
2022/02/22 13:01:56;;;;;;;6.47;2.37;;;6.90;99.90;;;;;;4439302;32;20232;-70
2022/02/22 13:04:33;;;;;;;5.70;2.50;;;6.90;99.90;;;;;;4441741;32;20392;-71
2022/02/22 13:07:13;;;;;;;6.37;2.60;;;6.80;99.90;;;;;;4442911;32;20207;-70
2022/02/22 13:09:43;;;;;;;5.23;2.73;;;6.60;99.90;;;;;;4442272;32;20210;-69
2022/02/22 13:12:10;;;;;;;6.73;3.07;;;6.30;99.90;;;;;;4440575;32;20193;-77
2022/02/22 13:14:42;;;;;;;8.23;2.70;;;6.00;99.90;;;;;;4441620;32;20169;-67
2022/02/22 13:17:10;;;;;;;6.20;2.50;;;5.70;99.90;;;;;;4442476;32;20179;-68